createdAt,value
2023-03-21T00:00:36.394Z,3.67
2023-03-21T00:01:36.397Z,3.39
2023-03-21T00:02:36.456Z,3.39
2023-03-21T00:03:36.441Z,3.39
2023-03-21T00:04:48.680Z,3.56
2023-03-21T00:05:36.808Z,3.28
2023-03-21T00:06:36.389Z,3.28
2023-03-21T00:07:36.390Z,3.28
2023-03-21T00:08:36.387Z,3.28
2023-03-21T00:09:36.402Z,3.28
2023-03-21T00:10:40.541Z,3.28
2023-03-21T00:11:36.389Z,3.28
2023-03-21T00:12:36.429Z,3.28
2023-03-21T00:13:36.398Z,3.11
2023-03-21T00:14:36.408Z,3.11
2023-03-21T00:15:44.180Z,3.28
2023-03-21T00:16:36.645Z,3.28
2023-03-21T00:17:36.403Z,3.11
2023-03-21T00:18:36.399Z,3.28
2023-03-21T00:19:36.400Z,3
2023-03-21T00:20:36.395Z,3.28
2023-03-21T00:21:46.437Z,3.39
2023-03-21T00:22:36.404Z,3.67
2023-03-21T00:23:36.402Z,3.39
2023-03-21T00:24:36.408Z,3.28
2023-03-21T00:25:36.601Z,3.28
2023-03-21T00:26:36.403Z,3.28
2023-03-21T00:27:50.254Z,3.28
2023-03-21T00:28:36.422Z,3.39
2023-03-21T00:29:36.406Z,3.11
2023-03-21T00:30:36.414Z,3.28
2023-03-21T00:31:36.406Z,3.39
2023-03-21T00:32:42.775Z,3.39
2023-03-21T00:33:36.406Z,3.39
2023-03-21T00:34:42.817Z,3.67
2023-03-21T00:36:05.358Z,3.56
2023-03-21T00:36:36.477Z,3.28
2023-03-21T00:37:36.400Z,3.56
2023-03-21T00:38:36.422Z,3.39
2023-03-21T00:39:36.483Z,3.39
2023-03-21T00:40:40.794Z,3.11
2023-03-21T00:41:42.720Z,3.56
2023-03-21T00:42:36.415Z,3.39
2023-03-21T00:43:36.410Z,3
2023-03-21T00:44:36.435Z,3.56
2023-03-21T00:45:36.635Z,3.17
2023-03-21T00:46:45.410Z,3.39
2023-03-21T00:47:36.511Z,3.28
2023-03-21T00:48:36.473Z,3.28
2023-03-21T00:49:36.408Z,3.28
2023-03-21T00:50:36.409Z,3.28
2023-03-21T00:51:36.421Z,3.28
2023-03-21T00:52:40.753Z,3.11
2023-03-21T00:53:36.433Z,3.11
2023-03-21T00:54:36.405Z,3.11
2023-03-21T00:55:36.639Z,3.28
2023-03-21T00:56:36.408Z,3.28
2023-03-21T00:57:39.490Z,3.39
2023-03-21T00:58:36.428Z,3.56
2023-03-21T00:59:36.414Z,3.39
2023-03-21T01:00:36.478Z,3.56
2023-03-21T01:01:36.482Z,3.56
2023-03-21T01:02:36.415Z,3.56
2023-03-21T01:03:36.416Z,3.67
2023-03-21T01:04:36.415Z,3.39
2023-03-21T01:05:36.750Z,3.39
2023-03-21T01:06:36.413Z,3.56
2023-03-21T01:07:36.414Z,3.56
2023-03-21T01:08:48.865Z,3.67
2023-03-21T01:09:36.446Z,3.28
2023-03-21T01:10:36.423Z,3.28
2023-03-21T01:11:36.418Z,3.67
2023-03-21T01:12:36.418Z,3.56
2023-03-21T01:13:38.367Z,3.67
2023-03-21T01:14:36.430Z,3.67
2023-03-21T01:15:36.595Z,3.39
2023-03-21T01:16:36.529Z,3.67
2023-03-21T01:17:36.422Z,3.67
2023-03-21T01:18:36.417Z,3.67
2023-03-21T01:19:50.514Z,3.56
2023-03-21T01:20:36.421Z,3.67
2023-03-21T01:21:36.415Z,3.56
2023-03-21T01:22:36.419Z,3.61
2023-03-21T01:23:36.419Z,3.78
2023-03-21T01:24:40.398Z,3.72
2023-03-21T01:25:36.547Z,3.44
2023-03-21T01:26:36.429Z,3.94
2023-03-21T01:27:36.424Z,3.56
2023-03-21T01:28:36.422Z,4
2023-03-21T01:29:36.423Z,3.89
2023-03-21T01:30:41.580Z,4
2023-03-21T01:31:36.456Z,3.72
2023-03-21T01:32:36.472Z,3.78
2023-03-21T01:33:36.432Z,4.06
2023-03-21T01:34:36.424Z,3.72
2023-03-21T01:35:45.023Z,4
2023-03-21T01:36:36.449Z,4.06
2023-03-21T01:37:36.419Z,3.83
2023-03-21T01:38:36.446Z,3.89
2023-03-21T01:39:36.451Z,4
2023-03-21T01:40:36.444Z,3.78
2023-03-21T01:41:42.798Z,3.56
2023-03-21T01:42:36.438Z,3.39
2023-03-21T01:43:36.452Z,3.39
2023-03-21T01:44:36.440Z,3.56
2023-03-21T01:45:36.740Z,3.56
2023-03-21T01:46:47.677Z,3.56
2023-03-21T01:47:36.429Z,3.67
2023-03-21T01:48:36.468Z,3.67
2023-03-21T01:49:36.475Z,3.67
2023-03-21T01:50:36.430Z,3.56
2023-03-21T01:51:36.455Z,3.67
2023-03-21T01:52:38.216Z,3.39
2023-03-21T01:53:36.453Z,3.67
2023-03-21T01:54:36.447Z,3.39
2023-03-21T01:55:36.810Z,3.11
2023-03-21T01:56:36.450Z,3.39
2023-03-21T01:57:43.676Z,3.56
2023-03-21T01:58:36.438Z,3.11
2023-03-21T01:59:36.438Z,3.56
2023-03-21T02:00:36.454Z,3.28
2023-03-21T02:01:36.441Z,3.67
2023-03-21T02:02:36.438Z,3
2023-03-21T02:03:36.737Z,3.11
2023-03-21T02:04:36.466Z,3.39
2023-03-21T02:05:36.646Z,3
2023-03-21T02:06:36.450Z,3.56
2023-03-21T02:07:36.449Z,3.67
2023-03-21T02:08:39.791Z,3.67
2023-03-21T02:09:36.462Z,3.39
2023-03-21T02:10:36.485Z,3.56
2023-03-21T02:11:36.444Z,3.39
2023-03-21T02:12:36.451Z,3.39
2023-03-21T02:13:36.455Z,3.56
2023-03-21T02:14:36.448Z,3.56
2023-03-21T02:15:36.687Z,3.56
2023-03-21T02:16:36.542Z,3.56
2023-03-21T02:17:36.454Z,3.56
2023-03-21T02:18:36.449Z,3.39
2023-03-21T02:19:44.489Z,3.67
2023-03-21T02:20:36.470Z,3.67
2023-03-21T02:21:36.470Z,3.67
2023-03-21T02:22:36.451Z,3.67
2023-03-21T02:23:36.456Z,3.67
2023-03-21T02:24:36.445Z,3.78
2023-03-21T02:25:36.610Z,3.67
2023-03-21T02:26:42.241Z,3.56
2023-03-21T02:27:36.458Z,4.11
2023-03-21T02:28:36.454Z,4.11
2023-03-21T02:29:36.458Z,3.94
2023-03-21T02:30:45.787Z,3.56
2023-03-21T02:31:36.518Z,3.67
2023-03-21T02:32:38.002Z,3.94
2023-03-21T02:33:36.446Z,4
2023-03-21T02:34:36.457Z,4.11
2023-03-21T02:35:41.449Z,4.11
2023-03-21T02:36:36.566Z,3.56
2023-03-21T02:37:38.537Z,3.78
2023-03-21T02:38:36.460Z,3.78
2023-03-21T02:39:36.459Z,3.67
2023-03-21T02:40:36.725Z,3.67
2023-03-21T02:41:40.269Z,4.11
2023-03-21T02:42:36.456Z,3.78
2023-03-21T02:43:36.454Z,3.56
2023-03-21T02:44:36.465Z,4.11
2023-03-21T02:45:36.456Z,4.39
2023-03-21T02:46:44.092Z,4.22
2023-03-21T02:47:36.459Z,4.11
2023-03-21T02:48:49.683Z,4.11
2023-03-21T02:49:36.451Z,4.17
2023-03-21T02:50:36.688Z,3.94
2023-03-21T02:51:36.460Z,3.78
2023-03-21T02:52:39.382Z,4.11
2023-03-21T02:53:36.452Z,3.94
2023-03-21T02:54:47.462Z,3.78
2023-03-21T02:55:36.458Z,3.78
2023-03-21T02:56:36.457Z,3.67
2023-03-21T02:57:42.449Z,3.78
2023-03-21T02:58:36.462Z,3.78
2023-03-21T02:59:41.786Z,3.67
2023-03-21T03:00:36.766Z,3.67
2023-03-21T03:01:36.484Z,3.56
2023-03-21T03:02:36.466Z,3.94
2023-03-21T03:03:36.476Z,3.39
2023-03-21T03:04:36.555Z,3.56
2023-03-21T03:05:36.456Z,3.67
2023-03-21T03:06:36.462Z,3.39
2023-03-21T03:07:36.476Z,3.56
2023-03-21T03:08:43.021Z,3.67
2023-03-21T03:09:36.476Z,3.67
2023-03-21T03:10:36.642Z,3.67
2023-03-21T03:11:36.483Z,3.67
2023-03-21T03:12:36.478Z,3.56
2023-03-21T03:13:36.472Z,3.39
2023-03-21T03:14:49.784Z,3.67
2023-03-21T03:15:36.506Z,3.56
2023-03-21T03:16:36.464Z,3.67
2023-03-21T03:17:36.475Z,3.39
2023-03-21T03:18:36.467Z,3.67
2023-03-21T03:19:44.612Z,3.67
2023-03-21T03:20:36.852Z,3.56
2023-03-21T03:21:36.473Z,3.67
2023-03-21T03:22:36.473Z,3.78
2023-03-21T03:23:36.479Z,3.67
2023-03-21T03:24:36.498Z,3.78
2023-03-21T03:25:42.697Z,3.56
2023-03-21T03:26:36.471Z,3.67
2023-03-21T03:27:36.484Z,3.94
2023-03-21T03:28:36.478Z,3.56
2023-03-21T03:29:36.471Z,3.78
2023-03-21T03:30:43.309Z,3.56
2023-03-21T03:31:36.509Z,3.67
2023-03-21T03:32:36.480Z,3.78
2023-03-21T03:33:36.477Z,3.67
2023-03-21T03:34:36.476Z,3.78
2023-03-21T03:35:36.508Z,3.67
2023-03-21T03:36:36.515Z,3.67
2023-03-21T03:37:36.476Z,3.94
2023-03-21T03:38:36.488Z,3.67
2023-03-21T03:39:36.488Z,3.78
2023-03-21T03:40:36.812Z,3.67
2023-03-21T03:41:56.516Z,3.94
2023-03-21T03:42:36.482Z,3.94
2023-03-21T03:43:36.488Z,3.78
2023-03-21T03:44:36.492Z,3.94
2023-03-21T03:45:36.488Z,3.94
2023-03-21T03:46:36.518Z,3.94
2023-03-21T03:47:44.646Z,3.78
2023-03-21T03:48:36.577Z,3.67
2023-03-21T03:49:36.489Z,3.94
2023-03-21T03:50:36.760Z,3.78
2023-03-21T03:51:36.495Z,3.67
2023-03-21T03:52:38.347Z,3.94
2023-03-21T03:53:36.487Z,3.78
2023-03-21T03:54:36.489Z,3.67
2023-03-21T03:55:36.504Z,3.78
2023-03-21T03:56:36.536Z,3.78
2023-03-21T03:57:36.489Z,3.78
2023-03-21T03:58:45.127Z,3.67
2023-03-21T03:59:36.480Z,3.78
2023-03-21T04:00:36.726Z,4.11
2023-03-21T04:01:36.544Z,3.67
2023-03-21T04:02:36.529Z,3.94
2023-03-21T04:03:47.826Z,3.78
2023-03-21T04:04:36.545Z,4.11
2023-03-21T04:05:36.477Z,3.94
2023-03-21T04:06:36.485Z,4.11
2023-03-21T04:07:36.491Z,4.11
2023-03-21T04:08:36.490Z,4.11
2023-03-21T04:09:43.967Z,4.11
2023-03-21T04:10:36.791Z,3.78
2023-03-21T04:11:36.491Z,3.94
2023-03-21T04:12:36.518Z,3.78
2023-03-21T04:13:36.492Z,3.67
2023-03-21T04:14:44.290Z,3.94
2023-03-21T04:15:36.489Z,3.67
2023-03-21T04:16:36.529Z,3.56
2023-03-21T04:17:36.491Z,3.78
2023-03-21T04:18:36.491Z,3.67
2023-03-21T04:19:36.495Z,3.94
2023-03-21T04:20:37.490Z,3.78
2023-03-21T04:21:36.511Z,4.11
2023-03-21T04:22:36.503Z,3.94
2023-03-21T04:23:36.496Z,3.67
2023-03-21T04:24:36.501Z,3.67
2023-03-21T04:25:38.604Z,3.78
2023-03-21T04:26:36.503Z,3.56
2023-03-21T04:27:36.506Z,3.67
2023-03-21T04:28:36.518Z,3.67
2023-03-21T04:29:36.505Z,3.67
2023-03-21T04:30:36.890Z,3.67
2023-03-21T04:31:36.567Z,3.67
2023-03-21T04:32:36.493Z,3.78
2023-03-21T04:33:36.507Z,3.56
2023-03-21T04:34:36.496Z,3.67
2023-03-21T04:35:37.606Z,4.11
2023-03-21T04:36:36.499Z,4.11
2023-03-21T04:37:36.509Z,3.78
2023-03-21T04:38:36.503Z,3.94
2023-03-21T04:39:36.504Z,4.39
2023-03-21T04:40:36.786Z,3.94
2023-03-21T04:41:36.496Z,4.39
2023-03-21T04:42:36.502Z,4.39
2023-03-21T04:43:36.535Z,4.5
2023-03-21T04:44:36.522Z,3.67
2023-03-21T04:45:36.554Z,4.11
2023-03-21T04:46:36.514Z,4.11
2023-03-21T04:47:36.513Z,4.11
2023-03-21T04:48:36.525Z,3.78
2023-03-21T04:49:36.507Z,3.94
2023-03-21T04:50:36.656Z,3.56
2023-03-21T04:51:36.514Z,3.78
2023-03-21T04:52:36.524Z,3.94
2023-03-21T04:53:36.525Z,4.11
2023-03-21T04:54:36.511Z,4.11
2023-03-21T04:55:36.757Z,4.11
2023-03-21T04:56:36.583Z,4.11
2023-03-21T04:57:36.507Z,3.94
2023-03-21T04:58:36.511Z,3.94
2023-03-21T04:59:36.513Z,3.67
2023-03-21T05:00:36.536Z,3.94
2023-03-21T05:01:36.519Z,3.78
2023-03-21T05:02:36.514Z,3.67
2023-03-21T05:03:36.546Z,3.39
2023-03-21T05:04:36.514Z,3.67
2023-03-21T05:05:36.746Z,3.56
2023-03-21T05:06:36.533Z,3.39
2023-03-21T05:07:36.512Z,3.28
2023-03-21T05:08:36.519Z,3.11
2023-03-21T05:09:36.521Z,3.28
2023-03-21T05:10:36.533Z,3.28
2023-03-21T05:11:36.521Z,3.39
2023-03-21T05:12:36.514Z,3.56
2023-03-21T05:13:36.518Z,3.67
2023-03-21T05:14:36.522Z,3.67
2023-03-21T05:15:36.802Z,3.56
2023-03-21T05:16:36.677Z,3.56
2023-03-21T05:17:36.523Z,3.56
2023-03-21T05:18:36.521Z,3.39
2023-03-21T05:19:36.537Z,3.39
2023-03-21T05:20:36.522Z,3.67
2023-03-21T05:21:36.525Z,3.56
2023-03-21T05:22:36.526Z,3.67
2023-03-21T05:23:36.530Z,3.67
2023-03-21T05:24:36.527Z,3.67
2023-03-21T05:25:36.817Z,3.39
2023-03-21T05:26:36.532Z,3.78
2023-03-21T05:27:36.603Z,4.11
2023-03-21T05:28:36.533Z,4.11
2023-03-21T05:29:36.562Z,4.11
2023-03-21T05:30:36.581Z,4.11
2023-03-21T05:31:36.530Z,4.11
2023-03-21T05:32:36.571Z,4.11
2023-03-21T05:33:36.559Z,3.78
2023-03-21T05:34:36.535Z,3.78
2023-03-21T05:35:36.861Z,3.67
2023-03-21T05:36:36.542Z,4.11
2023-03-21T05:37:36.545Z,3.67
2023-03-21T05:38:36.538Z,3.56
2023-03-21T05:39:36.541Z,3.94
2023-03-21T05:40:36.544Z,4.11
2023-03-21T05:41:36.555Z,3.94
2023-03-21T05:42:36.535Z,3.78
2023-03-21T05:43:36.546Z,3.94
2023-03-21T05:44:36.551Z,3.67
2023-03-21T05:45:36.678Z,4.11
2023-03-21T05:46:36.583Z,3.78
2023-03-21T05:47:36.545Z,3.39
2023-03-21T05:48:36.611Z,3.94
2023-03-21T05:49:36.544Z,3.78
2023-03-21T05:50:36.541Z,4.11
2023-03-21T05:51:36.551Z,3.78
2023-03-21T05:52:36.550Z,4.11
2023-03-21T05:53:36.543Z,4.11
2023-03-21T05:54:36.561Z,4.39
2023-03-21T05:55:36.845Z,4.11
2023-03-21T05:56:36.557Z,4.39
2023-03-21T05:57:36.552Z,4.5
2023-03-21T05:58:36.545Z,4.61
2023-03-21T05:59:36.558Z,4.39
2023-03-21T06:00:36.553Z,4.67
2023-03-21T06:01:36.555Z,4.72
2023-03-21T06:02:36.621Z,4.5
2023-03-21T06:03:36.586Z,4.44
2023-03-21T06:04:36.593Z,4.89
2023-03-21T06:05:36.697Z,4.78
2023-03-21T06:06:36.559Z,4.28
2023-03-21T06:07:36.554Z,4.72
2023-03-21T06:08:36.567Z,4.61
2023-03-21T06:09:36.556Z,4.39
2023-03-21T06:10:36.564Z,4.39
2023-03-21T06:11:36.569Z,4.39
2023-03-21T06:12:36.555Z,4.39
2023-03-21T06:13:36.565Z,4.11
2023-03-21T06:14:36.570Z,3.94
2023-03-21T06:15:37.006Z,4.39
2023-03-21T06:16:36.567Z,3.94
2023-03-21T06:17:36.558Z,3.78
2023-03-21T06:18:36.562Z,4.11
2023-03-21T06:19:36.560Z,4.11
2023-03-21T06:20:36.587Z,4.44
2023-03-21T06:21:36.565Z,4.39
2023-03-21T06:22:36.564Z,4.5
2023-03-21T06:23:36.585Z,4.39
2023-03-21T06:24:36.569Z,4.39
2023-03-21T06:25:36.805Z,4.5
2023-03-21T06:26:36.582Z,4.11
2023-03-21T06:27:36.568Z,4.78
2023-03-21T06:28:36.593Z,5.17
2023-03-21T06:29:36.566Z,4.89
2023-03-21T06:30:36.572Z,5
2023-03-21T06:31:36.641Z,5.61
2023-03-21T06:32:36.588Z,6.11
2023-03-21T06:33:36.576Z,5.83
2023-03-21T06:34:38.412Z,5.61
2023-03-21T06:35:36.867Z,5.33
2023-03-21T06:36:36.603Z,5.44
2023-03-21T06:37:36.577Z,5.22
2023-03-21T06:38:36.576Z,5.61
2023-03-21T06:39:36.574Z,5.17
2023-03-21T06:40:36.570Z,5.44
2023-03-21T06:41:36.582Z,5.44
2023-03-21T06:42:36.582Z,5.33
2023-03-21T06:43:36.597Z,5.61
2023-03-21T06:44:36.578Z,5
2023-03-21T06:45:36.985Z,5.44
2023-03-21T06:46:36.598Z,5.44
2023-03-21T06:47:36.577Z,5.33
2023-03-21T06:48:36.580Z,5.61
2023-03-21T06:49:36.576Z,5.83
2023-03-21T06:50:36.587Z,5.39
2023-03-21T06:51:36.587Z,5.67
2023-03-21T06:52:36.602Z,5.61
2023-03-21T06:53:36.584Z,6
2023-03-21T06:54:36.577Z,6
2023-03-21T06:55:36.918Z,5.72
2023-03-21T06:56:36.588Z,5.72
2023-03-21T06:57:36.574Z,5.89
2023-03-21T06:58:36.592Z,5.83
2023-03-21T06:59:36.578Z,5.83
2023-03-21T07:00:36.609Z,6
2023-03-21T07:01:36.590Z,6.11
2023-03-21T07:02:36.632Z,6.11
2023-03-21T07:03:36.584Z,6.11
2023-03-21T07:04:36.588Z,6.06
2023-03-21T07:05:36.993Z,6.39
2023-03-21T07:06:36.591Z,6.39
2023-03-21T07:07:36.598Z,6.5
2023-03-21T07:08:36.614Z,6.39
2023-03-21T07:09:36.587Z,6.28
2023-03-21T07:10:36.612Z,6.28
2023-03-21T07:11:36.608Z,6.28
2023-03-21T07:12:36.601Z,6.72
2023-03-21T07:13:36.591Z,6.39
2023-03-21T07:14:36.609Z,6.28
2023-03-21T07:15:36.759Z,6.39
2023-03-21T07:16:36.670Z,6.39
2023-03-21T07:17:36.614Z,6.39
2023-03-21T07:18:36.614Z,6.78
2023-03-21T07:19:36.598Z,6.28
2023-03-21T07:20:36.617Z,6.56
2023-03-21T07:21:36.593Z,6.56
2023-03-21T07:22:36.650Z,6.22
2023-03-21T07:23:36.608Z,6.22
2023-03-21T07:24:36.638Z,6.56
2023-03-21T07:25:36.962Z,6.22
2023-03-21T07:26:36.623Z,6.39
2023-03-21T07:27:37.097Z,6.72
2023-03-21T07:28:36.613Z,6.39
2023-03-21T07:29:36.615Z,6.22
2023-03-21T07:30:36.623Z,6.22
2023-03-21T07:31:36.701Z,5.78
2023-03-21T07:32:36.630Z,5.94
2023-03-21T07:33:36.626Z,5.67
2023-03-21T07:34:36.627Z,6.06
2023-03-21T07:35:37.024Z,6.39
2023-03-21T07:36:36.621Z,6.06
2023-03-21T07:37:38.089Z,5.67
2023-03-21T07:38:36.630Z,5.78
2023-03-21T07:39:36.627Z,5.94
2023-03-21T07:40:36.948Z,5.78
2023-03-21T07:41:36.619Z,5.56
2023-03-21T07:42:36.641Z,6.06
2023-03-21T07:43:37.233Z,6.22
2023-03-21T07:44:36.638Z,6.22
2023-03-21T07:45:36.839Z,6.39
2023-03-21T07:46:36.634Z,6.39
2023-03-21T07:47:36.646Z,6.67
2023-03-21T07:48:36.633Z,6.39
2023-03-21T07:49:36.626Z,6.22
2023-03-21T07:50:36.628Z,6.22
2023-03-21T07:51:36.636Z,6.67
2023-03-21T07:52:36.635Z,7.11
2023-03-21T07:53:36.631Z,7.22
2023-03-21T07:54:36.646Z,7.5
2023-03-21T07:55:36.932Z,7.11
2023-03-21T07:56:36.656Z,6.94
2023-03-21T07:57:36.622Z,6.67
2023-03-21T07:58:36.642Z,7.11
2023-03-21T07:59:36.624Z,6.78
2023-03-21T08:00:36.641Z,6.67
2023-03-21T08:01:36.631Z,6.78
2023-03-21T08:02:36.664Z,6.67
2023-03-21T08:03:36.657Z,6.67
2023-03-21T08:04:36.626Z,6.67
2023-03-21T08:05:37.145Z,6.94
2023-03-21T08:06:36.646Z,7.39
2023-03-21T08:07:36.636Z,7.94
2023-03-21T08:08:36.650Z,8.11
2023-03-21T08:09:36.639Z,8.11
2023-03-21T08:10:36.641Z,8.28
2023-03-21T08:11:36.646Z,8.28
2023-03-21T08:12:36.677Z,8.11
2023-03-21T08:13:36.640Z,8.39
2023-03-21T08:14:36.667Z,8.11
2023-03-21T08:15:36.986Z,8.11
2023-03-21T08:16:36.676Z,8.78
2023-03-21T08:17:36.677Z,8.61
2023-03-21T08:18:36.652Z,8.78
2023-03-21T08:19:36.647Z,8.78
2023-03-21T08:20:36.644Z,8.94
2023-03-21T08:21:36.654Z,9.06
2023-03-21T08:22:36.650Z,8.78
2023-03-21T08:23:36.643Z,8.78
2023-03-21T08:24:36.656Z,8.28
2023-03-21T08:25:36.969Z,8.61
2023-03-21T08:26:36.662Z,8.78
2023-03-21T08:27:36.657Z,9.06
2023-03-21T08:28:36.709Z,8.94
2023-03-21T08:29:36.658Z,8.94
2023-03-21T08:30:36.704Z,9.39
2023-03-21T08:31:36.664Z,9.5
2023-03-21T08:32:36.661Z,10.11
2023-03-21T08:33:36.658Z,9.78
2023-03-21T08:34:36.660Z,10.11
2023-03-21T08:35:39.048Z,9.78
2023-03-21T08:36:36.666Z,9.67
2023-03-21T08:37:36.682Z,9.67
2023-03-21T08:38:36.664Z,9.67
2023-03-21T08:39:36.726Z,9.78
2023-03-21T08:40:36.667Z,9.5
2023-03-21T08:41:36.663Z,10.11
2023-03-21T08:42:36.684Z,10.11
2023-03-21T08:43:36.668Z,10.11
2023-03-21T08:44:36.699Z,9.94
2023-03-21T08:45:36.956Z,10.11
2023-03-21T08:46:36.708Z,10.39
2023-03-21T08:47:36.698Z,10.67
2023-03-21T08:48:36.703Z,10.83
2023-03-21T08:49:36.681Z,10.83
2023-03-21T08:50:36.693Z,10.83
2023-03-21T08:51:36.681Z,11.11
2023-03-21T08:52:36.693Z,11
2023-03-21T08:53:36.680Z,10.67
2023-03-21T08:54:36.688Z,10.67
2023-03-21T08:55:36.999Z,10.56
2023-03-21T08:56:37.510Z,10.83
2023-03-21T08:57:36.685Z,10.83
2023-03-21T08:58:36.713Z,11
2023-03-21T08:59:36.682Z,11.28
2023-03-21T09:00:36.792Z,11.61
2023-03-21T09:01:36.726Z,11.28
2023-03-21T09:02:36.695Z,11.11
2023-03-21T09:03:36.698Z,10.56
2023-03-21T09:04:36.729Z,10.67
2023-03-21T09:05:36.927Z,11.11
2023-03-21T09:06:36.700Z,11.44
2023-03-21T09:07:36.689Z,11.28
2023-03-21T09:08:36.724Z,11
2023-03-21T09:09:36.690Z,10.56
2023-03-21T09:10:36.703Z,10.56
2023-03-21T09:11:36.696Z,10.22
2023-03-21T09:12:36.699Z,10.22
2023-03-21T09:13:36.702Z,10.56
2023-03-21T09:14:36.709Z,10.56
2023-03-21T09:15:37.143Z,11
2023-03-21T09:16:36.723Z,11.11
2023-03-21T09:17:36.707Z,11.28
2023-03-21T09:18:36.699Z,11.44
2023-03-21T09:19:36.711Z,11
2023-03-21T09:20:36.720Z,10.67
2023-03-21T09:21:36.712Z,11.61
2023-03-21T09:22:36.707Z,11.83
2023-03-21T09:23:36.708Z,11.11
2023-03-21T09:24:36.715Z,11.11
2023-03-21T09:25:36.980Z,10.56
2023-03-21T09:26:36.715Z,11.11
2023-03-21T09:27:36.711Z,11.44
2023-03-21T09:28:36.724Z,11.83
2023-03-21T09:29:36.719Z,11.83
2023-03-21T09:30:36.740Z,11.44
2023-03-21T09:31:36.809Z,12.11
2023-03-21T09:32:36.733Z,12.72
2023-03-21T09:33:36.715Z,12.56
2023-03-21T09:34:36.729Z,12.44
2023-03-21T09:35:37.057Z,12.56
2023-03-21T09:36:36.724Z,12.72
2023-03-21T09:37:36.717Z,12.89
2023-03-21T09:38:36.721Z,12.72
2023-03-21T09:39:36.724Z,13.67
2023-03-21T09:40:36.719Z,13.17
2023-03-21T09:41:36.730Z,13.67
2023-03-21T09:42:36.718Z,14.06
2023-03-21T09:43:36.725Z,13.78
2023-03-21T09:44:36.734Z,13.5
2023-03-21T09:45:37.059Z,13.67
2023-03-21T09:46:36.806Z,13.67
2023-03-21T09:47:36.728Z,13.67
2023-03-21T09:48:39.555Z,13.67
2023-03-21T09:49:36.730Z,13.06
2023-03-21T09:50:36.727Z,12.11
2023-03-21T09:51:37.080Z,12.44
2023-03-21T09:52:36.746Z,12.28
2023-03-21T09:53:36.733Z,11.94
2023-03-21T09:54:36.730Z,12.28
2023-03-21T09:55:36.963Z,13.17
2023-03-21T09:56:36.754Z,13.5
2023-03-21T09:57:36.736Z,13.5
2023-03-21T09:58:36.770Z,13.67
2023-03-21T09:59:36.751Z,12.89
2023-03-21T10:00:36.742Z,13.33
2023-03-21T10:01:36.825Z,13.17
2023-03-21T10:02:36.780Z,13.5
2023-03-21T10:03:36.735Z,14.06
2023-03-21T10:04:36.861Z,13.06
2023-03-21T10:05:36.999Z,13.67
2023-03-21T10:06:36.737Z,13.5
2023-03-21T10:07:36.761Z,13.33
2023-03-21T10:08:36.768Z,13.5
2023-03-21T10:09:36.747Z,13.78
2023-03-21T10:10:36.998Z,13.17
2023-03-21T10:11:36.747Z,12.44
2023-03-21T10:12:36.744Z,12.72
2023-03-21T10:13:36.743Z,12.44
2023-03-21T10:14:36.739Z,12.89
2023-03-21T10:15:37.298Z,12.89
2023-03-21T10:16:36.771Z,12.89
2023-03-21T10:17:36.741Z,12.89
2023-03-21T10:18:36.742Z,13.06
2023-03-21T10:19:36.750Z,12.72
2023-03-21T10:20:36.780Z,13.17
2023-03-21T10:21:58.885Z,13.33
2023-03-21T10:22:36.748Z,13.78
2023-03-21T10:23:36.765Z,13.78
2023-03-21T10:24:36.756Z,13.06
2023-03-21T10:25:37.091Z,12.89
2023-03-21T10:26:36.760Z,12.33
2023-03-21T10:27:36.760Z,11.89
2023-03-21T10:28:50.184Z,12.17
2023-03-21T10:29:36.784Z,12.78
2023-03-21T10:30:36.756Z,13.56
2023-03-21T10:31:36.792Z,13.56
2023-03-21T10:32:36.782Z,14.06
2023-03-21T10:33:36.746Z,14
2023-03-21T10:34:36.747Z,14.22
2023-03-21T10:35:37.174Z,14.61
2023-03-21T10:36:36.790Z,15.17
2023-03-21T10:37:36.763Z,14.28
2023-03-21T10:38:36.759Z,13.83
2023-03-21T10:39:36.769Z,13.67
2023-03-21T10:40:36.767Z,13.83
2023-03-21T10:41:36.752Z,13.39
2023-03-21T10:42:36.755Z,13.83
2023-03-21T10:43:36.762Z,14.44
2023-03-21T10:44:36.758Z,14.78
2023-03-21T10:45:37.082Z,13.67
2023-03-21T10:46:36.904Z,13.11
2023-03-21T10:47:36.964Z,12.78
2023-03-21T10:48:36.829Z,13.39
2023-03-21T10:49:50.192Z,13.11
2023-03-21T10:50:36.793Z,13.67
2023-03-21T10:51:36.762Z,13.11
2023-03-21T10:52:36.786Z,13.39
2023-03-21T10:53:36.786Z,13.22
2023-03-21T10:54:36.765Z,14
2023-03-21T10:55:36.966Z,14.11
2023-03-21T10:56:36.771Z,13.39
2023-03-21T10:57:36.775Z,13.39
2023-03-21T10:58:36.763Z,13.83
2023-03-21T10:59:36.770Z,13.83
2023-03-21T11:00:36.778Z,13.67
2023-03-21T11:01:36.843Z,13.83
2023-03-21T11:02:36.794Z,13.56
2023-03-21T11:03:36.763Z,13.83
2023-03-21T11:04:36.774Z,14.28
2023-03-21T11:05:37.243Z,14.89
2023-03-21T11:06:36.765Z,14.78
2023-03-21T11:07:36.785Z,14
2023-03-21T11:08:36.794Z,13.56
2023-03-21T11:09:36.769Z,13.56
2023-03-21T11:10:36.774Z,13.56
2023-03-21T11:11:36.781Z,14
2023-03-21T11:12:36.776Z,14.61
2023-03-21T11:13:36.777Z,15.17
2023-03-21T11:14:36.775Z,16.06
2023-03-21T11:15:36.936Z,15.89
2023-03-21T11:16:38.454Z,15.44
2023-03-21T11:17:36.779Z,14.78
2023-03-21T11:18:36.786Z,15.44
2023-03-21T11:19:36.785Z,15.89
2023-03-21T11:20:36.818Z,16.22
2023-03-21T11:21:36.780Z,16.22
2023-03-21T11:22:36.785Z,17
2023-03-21T11:23:36.776Z,17.17
2023-03-21T11:24:36.794Z,17.17
2023-03-21T11:25:37.252Z,17.17
2023-03-21T11:26:36.793Z,17.5
2023-03-21T11:27:36.779Z,17.67
2023-03-21T11:28:36.781Z,17
2023-03-21T11:29:36.779Z,17.67
2023-03-21T11:30:36.854Z,18.17
2023-03-21T11:31:36.801Z,18.44
2023-03-21T11:32:36.783Z,17.94
2023-03-21T11:33:36.777Z,18.28
2023-03-21T11:34:36.805Z,18.44
2023-03-21T11:35:37.237Z,18.44
2023-03-21T11:36:36.775Z,18.44
2023-03-21T11:37:36.781Z,18.17
2023-03-21T11:38:36.796Z,17.94
2023-03-21T11:39:36.787Z,18.28
2023-03-21T11:40:36.858Z,18.44
2023-03-21T11:41:36.784Z,18.44
2023-03-21T11:42:36.787Z,18.17
2023-03-21T11:43:36.782Z,17.33
2023-03-21T11:44:36.797Z,17.5
2023-03-21T11:45:37.249Z,18.44
2023-03-21T11:46:36.847Z,18.61
2023-03-21T11:47:36.804Z,18.61
2023-03-21T11:48:36.800Z,17.94
2023-03-21T11:49:36.801Z,17.83
2023-03-21T11:50:36.805Z,17.5
2023-03-21T11:51:36.793Z,17.5
2023-03-21T11:52:36.802Z,17.17
2023-03-21T11:53:36.796Z,17.17
2023-03-21T11:54:36.790Z,16.72
2023-03-21T11:55:37.136Z,16.39
2023-03-21T11:56:36.838Z,15.61
2023-03-21T11:57:36.811Z,15.89
2023-03-21T11:58:36.843Z,16.22
2023-03-21T11:59:36.804Z,16.89
2023-03-21T12:00:36.811Z,16.22
2023-03-21T12:01:36.805Z,16.56
2023-03-21T12:02:36.914Z,17.5
2023-03-21T12:03:47.019Z,17.94
2023-03-21T12:04:36.913Z,17.94
2023-03-21T12:05:37.176Z,18.44
2023-03-21T12:06:36.823Z,17.67
2023-03-21T12:07:36.810Z,17.5
2023-03-21T12:08:36.834Z,18.44
2023-03-21T12:09:36.814Z,18.94
2023-03-21T12:10:36.811Z,18.78
2023-03-21T12:11:36.810Z,18.94
2023-03-21T12:12:39.329Z,19.28
2023-03-21T12:13:36.813Z,18.44
2023-03-21T12:14:36.829Z,17.5
2023-03-21T12:15:37.031Z,16.56
2023-03-21T12:16:36.924Z,15.83
2023-03-21T12:17:36.823Z,15.83
2023-03-21T12:18:36.852Z,16.44
2023-03-21T12:19:36.813Z,15.83
2023-03-21T12:20:36.820Z,15.83
2023-03-21T12:21:36.824Z,16.44
2023-03-21T12:22:36.822Z,17.22
2023-03-21T12:23:36.849Z,17.39
2023-03-21T12:24:36.823Z,17.39
2023-03-21T12:25:37.081Z,18.67
2023-03-21T12:26:36.820Z,18.5
2023-03-21T12:27:36.825Z,18
2023-03-21T12:28:36.935Z,17.22
2023-03-21T12:29:36.822Z,16.56
2023-03-21T12:30:36.829Z,16.72
2023-03-21T12:31:36.868Z,16.56
2023-03-21T12:32:36.830Z,17.39
2023-03-21T12:33:36.824Z,15.83
2023-03-21T12:34:36.826Z,16.28
2023-03-21T12:35:37.096Z,17.06
2023-03-21T12:36:36.828Z,18
2023-03-21T12:37:36.830Z,17.22
2023-03-21T12:38:36.837Z,17.06
2023-03-21T12:39:36.834Z,17.67
2023-03-21T12:40:36.849Z,17.67
2023-03-21T12:41:36.831Z,17.5
2023-03-21T12:42:36.840Z,17.67
2023-03-21T12:43:36.834Z,17.5
2023-03-21T12:44:36.956Z,17.67
2023-03-21T12:45:46.447Z,17.22
2023-03-21T12:46:36.880Z,17.22
2023-03-21T12:47:36.841Z,17.67
2023-03-21T12:48:36.838Z,18.17
2023-03-21T12:49:36.842Z,17.83
2023-03-21T12:50:36.866Z,17.06
2023-03-21T12:51:36.860Z,17.22
2023-03-21T12:52:36.843Z,17.5
2023-03-21T12:53:36.856Z,18.83
2023-03-21T12:54:36.855Z,18.67
2023-03-21T12:55:37.077Z,18.83
2023-03-21T12:56:36.855Z,19.61
2023-03-21T12:57:38.318Z,19.61
2023-03-21T12:58:36.847Z,19.61
2023-03-21T12:59:36.845Z,19.11
2023-03-21T13:00:37.289Z,19.33
2023-03-21T13:01:36.864Z,19.33
2023-03-21T13:02:36.844Z,19.94
2023-03-21T13:03:40.096Z,19.83
2023-03-21T13:04:36.972Z,19.33
2023-03-21T13:05:36.846Z,17.5
2023-03-21T13:06:36.867Z,16.89
2023-03-21T13:07:36.872Z,17.06
2023-03-21T13:08:36.858Z,19.61
2023-03-21T13:09:37.830Z,19.61
2023-03-21T13:10:37.170Z,18.17
2023-03-21T13:11:36.873Z,17.83
2023-03-21T13:12:36.852Z,18.17